Terminal Aerodrome Forecast
Issued by NWS Charleston, WV

Current Version | Previous Version | Graphics & Text | Print | Product List | Glossary On
Versions: 1 2 3 4 5 6 7 8 9 10 11 12 13 14 15 16 17 18 19 20 21
869
FTUS41 KRLX 202339
TAFEKN
TAF
KEKN 202339Z 2100/2124 19004KT P6SM SCT090
     FM210500 21006KT P6SM VCSH BKN045
     FM210700 23006KT 3SM SHRA VCTS BKN045CB
     FM211000 22006KT 6SM SHRA VCTS BKN015CB
     FM211200 24006KT P6SM VCSH OVC015
     FM211900 28009KT P6SM BKN035=

USA.gov is the U.S. government's official web portal to all federal, state and local government web resources and services.